createdAt,value
2018-02-07T00:01:50.231Z,12.45
2018-02-07T00:04:18.798Z,13.00
2018-02-07T00:06:47.352Z,12.63
2018-02-07T00:09:16.672Z,12.70
2018-02-07T00:11:45.225Z,12.57
2018-02-07T00:14:14.530Z,13.07
2018-02-07T00:16:43.088Z,12.10
2018-02-07T00:19:11.638Z,13.15
2018-02-07T00:21:40.196Z,13.45
2018-02-07T00:24:08.936Z,13.88
2018-02-07T00:26:37.474Z,14.25
2018-02-07T00:29:06.186Z,14.27
2018-02-07T00:31:35.494Z,14.30
2018-02-07T00:34:03.826Z,15.18
2018-02-07T00:36:32.361Z,14.50
2018-02-07T00:39:01.721Z,14.68
2018-02-07T00:41:30.291Z,13.73
2018-02-07T00:43:58.871Z,13.77
2018-02-07T00:46:27.400Z,14.00
2018-02-07T00:48:55.976Z,13.75
2018-02-07T00:51:24.542Z,14.27
2018-02-07T00:53:53.100Z,13.95
2018-02-07T00:56:21.663Z,14.35
2018-02-07T00:58:50.222Z,14.15
2018-02-07T01:01:18.765Z,13.73
2018-02-07T01:03:47.321Z,13.35
2018-02-07T01:06:16.629Z,13.60
2018-02-07T01:08:45.188Z,14.48
2018-02-07T01:11:13.749Z,14.90
2018-02-07T01:13:42.295Z,14.93
2018-02-07T01:16:10.515Z,13.93
2018-02-07T01:18:39.073Z,14.45
2018-02-07T01:21:07.636Z,14.18
2018-02-07T01:23:36.201Z,13.93
2018-02-07T01:26:04.751Z,14.65
2018-02-07T01:28:33.326Z,14.90
2018-02-07T01:31:01.650Z,16.02
2018-02-07T01:33:30.213Z,15.57
2018-02-07T01:35:58.796Z,16.37
2018-02-07T01:38:27.348Z,15.60
2018-02-07T01:40:55.912Z,16.77
2018-02-07T01:43:24.488Z,19.30
2018-02-07T01:45:53.025Z,18.95
2018-02-07T01:48:22.353Z,16.70
2018-02-07T01:50:50.869Z,17.98
2018-02-07T01:53:19.423Z,17.50
2018-02-07T01:55:48.055Z,16.10
2018-02-07T01:58:16.606Z,16.12
2018-02-07T02:00:45.154Z,16.95
2018-02-07T02:03:13.703Z,15.45
2018-02-07T02:05:42.263Z,14.85
2018-02-07T02:08:10.815Z,14.80
2018-02-07T02:10:39.361Z,15.13
2018-02-07T02:13:07.929Z,15.00
2018-02-07T02:15:36.473Z,14.15
2018-02-07T02:18:05.020Z,15.18
2018-02-07T02:20:33.572Z,13.65
2018-02-07T02:23:02.416Z,15.02
2018-02-07T02:25:30.994Z,15.27
2018-02-07T02:27:59.555Z,14.93
2018-02-07T02:30:28.318Z,15.68
2018-02-07T02:32:56.853Z,16.40
2018-02-07T02:35:25.440Z,16.60
2018-02-07T02:37:54.165Z,16.12
2018-02-07T02:40:22.755Z,16.98
2018-02-07T02:42:51.287Z,17.92
2018-02-07T02:45:19.822Z,19.45
2018-02-07T02:47:48.424Z,18.90
2018-02-07T02:50:16.969Z,19.12
2018-02-07T02:52:45.509Z,18.98
2018-02-07T02:55:14.049Z,19.10
2018-02-07T02:57:42.589Z,17.42
2018-02-07T03:00:11.141Z,20.02
2018-02-07T03:02:39.688Z,18.05
2018-02-07T03:05:08.236Z,18.25
2018-02-07T03:07:36.465Z,19.23
2018-02-07T03:10:05.005Z,19.20
2018-02-07T03:12:33.555Z,17.73
2018-02-07T03:15:02.099Z,18.50
2018-02-07T03:17:30.651Z,18.62
2018-02-07T03:19:59.202Z,19.02
2018-02-07T03:22:27.741Z,18.35
2018-02-07T03:24:56.300Z,18.23
2018-02-07T03:27:24.888Z,19.23
2018-02-07T03:29:53.694Z,17.58
2018-02-07T03:32:22.233Z,17.75
2018-02-07T03:34:50.787Z,17.77
2018-02-07T03:37:19.330Z,15.32
2018-02-07T03:39:47.940Z,16.90
2018-02-07T03:42:16.499Z,17.35
2018-02-07T03:44:44.855Z,18.00
2018-02-07T03:47:13.406Z,17.87
2018-02-07T03:49:41.954Z,18.52
2018-02-07T03:52:10.512Z,18.80
2018-02-07T03:54:39.041Z,19.23
2018-02-07T03:57:07.598Z,19.98
2018-02-07T03:59:36.160Z,18.48
2018-02-07T04:02:04.706Z,20.17
2018-02-07T04:04:33.241Z,17.92
2018-02-07T04:07:01.798Z,18.20
2018-02-07T04:09:30.352Z,19.42
2018-02-07T04:11:58.904Z,18.77
2018-02-07T04:14:27.473Z,18.73
2018-02-07T04:16:56.017Z,18.25
2018-02-07T04:19:24.612Z,19.77
2018-02-07T04:21:53.175Z,20.27
2018-02-07T04:24:21.702Z,19.12
2018-02-07T04:26:50.255Z,19.80
2018-02-07T04:29:18.819Z,19.15
2018-02-07T04:31:47.472Z,19.92
2018-02-07T04:34:16.048Z,19.45
2018-02-07T04:36:44.611Z,19.33
2018-02-07T04:39:13.159Z,19.42
2018-02-07T04:41:41.699Z,18.48
2018-02-07T04:44:10.266Z,19.05
2018-02-07T04:46:38.810Z,18.50
2018-02-07T04:49:07.351Z,20.00
2018-02-07T04:51:35.915Z,19.20
2018-02-07T04:54:05.240Z,18.37
2018-02-07T04:56:33.825Z,18.50
2018-02-07T04:59:02.371Z,18.87
2018-02-07T05:01:30.944Z,19.08
2018-02-07T05:03:59.494Z,19.08
2018-02-07T05:06:28.042Z,17.83
2018-02-07T05:08:56.588Z,19.17
2018-02-07T05:11:25.148Z,19.55
2018-02-07T05:13:53.687Z,19.45
2018-02-07T05:16:22.245Z,18.40
2018-02-07T05:18:50.789Z,18.60
2018-02-07T05:21:19.333Z,18.75
2018-02-07T05:23:47.905Z,19.62
2018-02-07T05:26:16.460Z,20.88
2018-02-07T05:28:45.106Z,19.50
2018-02-07T05:31:13.652Z,20.30
2018-02-07T05:33:42.274Z,19.35
2018-02-07T05:36:10.807Z,20.25
2018-02-07T05:38:39.407Z,20.42
2018-02-07T05:41:07.960Z,19.98
2018-02-07T05:43:36.513Z,20.73
2018-02-07T05:46:05.065Z,21.62
2018-02-07T05:48:33.603Z,21.70
2018-02-07T05:51:02.180Z,23.70
2018-02-07T05:53:30.720Z,26.58
2018-02-07T05:55:59.277Z,25.30
2018-02-07T05:58:27.829Z,24.55
2018-02-07T06:00:56.379Z,25.12
2018-02-07T06:03:24.925Z,23.77
2018-02-07T06:05:53.501Z,22.92
2018-02-07T06:08:22.036Z,23.45
2018-02-07T06:10:50.596Z,23.42
2018-02-07T06:13:19.152Z,23.02
2018-02-07T06:15:48.336Z,22.20
2018-02-07T06:18:16.879Z,22.73
2018-02-07T06:20:45.432Z,22.30
2018-02-07T06:23:14.041Z,21.08
2018-02-07T06:25:42.573Z,20.67
2018-02-07T06:28:11.137Z,20.40
2018-02-07T06:30:39.674Z,21.00
2018-02-07T06:33:08.236Z,21.55
2018-02-07T06:35:36.776Z,21.52
2018-02-07T06:38:05.327Z,20.83
2018-02-07T06:40:33.882Z,21.90
2018-02-07T06:43:02.445Z,21.92
2018-02-07T06:45:31.001Z,22.65
2018-02-07T06:47:59.613Z,22.70
2018-02-07T06:50:28.152Z,22.30
2018-02-07T06:52:56.688Z,22.17
2018-02-07T06:55:25.248Z,22.87
2018-02-07T06:57:53.786Z,21.90
2018-02-07T07:00:22.351Z,22.70
2018-02-07T07:02:51.091Z,22.92
2018-02-07T07:05:19.723Z,22.00
2018-02-07T07:07:48.277Z,23.30
2018-02-07T07:10:16.836Z,23.42
2018-02-07T07:12:46.165Z,24.35
2018-02-07T07:15:14.736Z,23.90
2018-02-07T07:17:43.310Z,23.85
2018-02-07T07:20:11.882Z,24.17
2018-02-07T07:22:40.419Z,24.30
2018-02-07T07:25:08.993Z,23.17
2018-02-07T07:27:38.320Z,28.55
2018-02-07T07:30:06.870Z,25.88
2018-02-07T07:32:36.178Z,25.15
2018-02-07T07:35:04.759Z,24.12
2018-02-07T07:37:33.304Z,23.70
2018-02-07T07:40:01.884Z,22.15
2018-02-07T07:42:30.450Z,23.20
2018-02-07T07:44:58.998Z,24.17
2018-02-07T07:47:27.763Z,24.85
2018-02-07T07:49:56.147Z,27.52
2018-02-07T07:52:24.735Z,28.67
2018-02-07T07:54:53.299Z,30.27
2018-02-07T07:57:21.842Z,28.65
2018-02-07T07:59:50.379Z,29.67
2018-02-07T08:02:18.952Z,29.73
2018-02-07T08:04:47.517Z,30.33
2018-02-07T08:07:16.073Z,29.52
2018-02-07T08:09:44.628Z,30.60
2018-02-07T08:12:13.259Z,30.90
2018-02-07T08:14:41.813Z,30.17
2018-02-07T08:17:10.374Z,30.95
2018-02-07T08:19:38.928Z,30.77
2018-02-07T08:22:07.486Z,31.52
2018-02-07T08:24:36.054Z,32.63
2018-02-07T08:27:04.617Z,32.47
2018-02-07T08:29:33.301Z,31.37
2018-02-07T08:32:02.630Z,28.40
2018-02-07T08:34:31.178Z,28.70
2018-02-07T08:36:59.731Z,28.02
2018-02-07T08:39:28.297Z,27.67
2018-02-07T08:41:56.889Z,24.70
2018-02-07T08:44:25.443Z,24.75
2018-02-07T08:46:54.810Z,23.77
2018-02-07T08:49:23.348Z,22.80
2018-02-07T08:51:51.879Z,22.15
2018-02-07T08:54:20.460Z,22.55
2018-02-07T08:56:49.021Z,21.77
2018-02-07T08:59:17.668Z,20.52
2018-02-07T09:01:46.208Z,19.45
2018-02-07T09:04:14.493Z,19.87
2018-02-07T09:06:43.053Z,18.67
2018-02-07T09:09:11.602Z,19.12
2018-02-07T09:11:40.155Z,19.15
2018-02-07T09:14:08.717Z,17.12
2018-02-07T09:16:37.296Z,17.10
2018-02-07T09:19:05.878Z,17.83
2018-02-07T09:21:34.454Z,17.25
2018-02-07T09:24:03.014Z,17.12
2018-02-07T09:26:31.382Z,17.42
2018-02-07T09:28:59.741Z,15.80
2018-02-07T09:31:28.329Z,15.27
2018-02-07T09:33:56.878Z,14.87
2018-02-07T09:36:25.139Z,15.53
2018-02-07T09:38:53.699Z,13.73
2018-02-07T09:41:21.982Z,14.27
2018-02-07T09:43:50.569Z,13.75
2018-02-07T09:46:18.825Z,12.27
2018-02-07T09:48:47.444Z,12.27
2018-02-07T09:51:15.750Z,12.73
2018-02-07T09:53:44.797Z,11.23
2018-02-07T09:56:13.065Z,10.57
2018-02-07T09:58:41.372Z,12.00
2018-02-07T10:01:09.664Z,10.17
2018-02-07T10:03:37.939Z,9.27
2018-02-07T10:06:06.229Z,9.23
2018-02-07T10:08:34.527Z,10.00
2018-02-07T10:11:02.827Z,9.57
2018-02-07T10:13:31.117Z,9.43
2018-02-07T10:16:01.853Z,9.60
2018-02-07T10:18:30.152Z,8.93
2018-02-07T10:20:58.478Z,9.87
2018-02-07T10:23:26.756Z,9.13
2018-02-07T10:25:55.029Z,9.50
2018-02-07T10:28:24.821Z,9.87
2018-02-07T10:30:53.128Z,8.83
2018-02-07T10:33:23.282Z,9.07
2018-02-07T10:35:51.541Z,8.53
2018-02-07T10:38:19.807Z,7.80
2018-02-07T10:40:48.097Z,8.93
2018-02-07T10:43:17.901Z,8.50
2018-02-07T10:45:46.206Z,7.60
2018-02-07T10:48:14.676Z,7.33
2018-02-07T10:50:42.932Z,7.90
2018-02-07T10:53:11.205Z,7.80
2018-02-07T10:55:39.468Z,8.00
2018-02-07T10:58:07.835Z,7.80
2018-02-07T11:00:36.085Z,6.77
2018-02-07T11:03:03.789Z,7.50
2018-02-07T11:05:32.050Z,6.83
2018-02-07T11:08:00.313Z,7.93
2018-02-07T11:10:28.586Z,8.20
2018-02-07T11:12:56.883Z,7.83
2018-02-07T11:15:25.147Z,7.87
2018-02-07T11:17:53.428Z,7.37
2018-02-07T11:20:21.722Z,8.20
2018-02-07T11:22:50.764Z,7.80
2018-02-07T11:25:19.050Z,8.00
2018-02-07T11:27:47.327Z,7.63
2018-02-07T11:30:15.619Z,8.00
2018-02-07T11:32:43.887Z,7.57
2018-02-07T11:35:12.185Z,7.90
2018-02-07T11:37:40.481Z,7.80
2018-02-07T11:40:08.772Z,7.23
2018-02-07T11:42:37.050Z,7.07
2018-02-07T11:45:05.109Z,6.67
2018-02-07T11:47:33.428Z,7.03
2018-02-07T11:50:01.867Z,6.57
2018-02-07T11:52:30.155Z,6.87
2018-02-07T11:54:58.426Z,6.17
2018-02-07T11:57:26.718Z,5.90
2018-02-07T11:59:54.979Z,5.87
2018-02-07T12:02:23.265Z,6.33
2018-02-07T12:04:51.537Z,5.60
2018-02-07T12:07:19.793Z,5.53
2018-02-07T12:09:48.065Z,6.13
2018-02-07T12:12:16.347Z,5.93
2018-02-07T12:14:44.603Z,6.77
2018-02-07T12:17:12.889Z,5.70
2018-02-07T12:19:41.150Z,5.83
2018-02-07T12:22:09.419Z,5.97
2018-02-07T12:24:37.676Z,5.33
2018-02-07T12:27:05.968Z,5.07
2018-02-07T12:29:34.231Z,6.10
2018-02-07T12:32:03.287Z,5.60
2018-02-07T12:34:31.552Z,6.10
2018-02-07T12:36:59.818Z,5.70
2018-02-07T12:39:28.096Z,5.57
2018-02-07T12:41:56.411Z,4.77
2018-02-07T12:44:24.847Z,5.20
2018-02-07T12:46:53.145Z,5.50
2018-02-07T12:49:21.404Z,5.47
2018-02-07T12:51:49.664Z,5.33
2018-02-07T12:54:17.936Z,5.67
2018-02-07T12:56:46.213Z,5.67
2018-02-07T12:59:14.520Z,5.60
2018-02-07T13:01:42.805Z,5.43
2018-02-07T13:04:11.055Z,5.80
2018-02-07T13:06:39.337Z,5.70
2018-02-07T13:09:07.638Z,5.80
2018-02-07T13:11:35.920Z,5.90
2018-02-07T13:14:04.206Z,5.60
2018-02-07T13:16:32.503Z,6.10
2018-02-07T13:19:00.755Z,5.87
2018-02-07T13:21:29.038Z,6.30
2018-02-07T13:23:57.367Z,6.33
2018-02-07T13:26:25.879Z,5.47
2018-02-07T13:28:54.206Z,5.63
2018-02-07T13:31:22.494Z,6.47
2018-02-07T13:33:50.777Z,6.63
2018-02-07T13:36:19.056Z,5.80
2018-02-07T13:38:47.337Z,5.97
2018-02-07T13:41:15.600Z,6.80
2018-02-07T13:43:43.858Z,6.40
2018-02-07T13:46:12.145Z,6.43
2018-02-07T13:48:40.418Z,6.30
2018-02-07T13:51:08.695Z,6.40
2018-02-07T13:53:36.628Z,6.87
2018-02-07T13:56:04.889Z,7.23
2018-02-07T13:58:33.932Z,6.50
2018-02-07T14:01:02.258Z,7.53
2018-02-07T14:03:30.690Z,7.97
2018-02-07T14:05:58.965Z,7.67
2018-02-07T14:08:27.264Z,7.43
2018-02-07T14:10:55.561Z,7.40
2018-02-07T14:13:23.671Z,7.23
2018-02-07T14:15:51.945Z,6.83
2018-02-07T14:18:20.243Z,7.87
2018-02-07T14:20:48.512Z,7.60
2018-02-07T14:23:16.782Z,7.27
2018-02-07T14:25:45.077Z,7.27
2018-02-07T14:28:13.347Z,7.20
2018-02-07T14:30:41.631Z,7.40
2018-02-07T14:33:09.723Z,6.97
2018-02-07T14:35:38.752Z,7.33
2018-02-07T14:38:07.007Z,6.87
2018-02-07T14:40:34.960Z,6.93
2018-02-07T14:43:03.240Z,7.00
2018-02-07T14:45:31.527Z,6.40
2018-02-07T14:47:59.789Z,5.93
2018-02-07T14:50:28.127Z,6.27
2018-02-07T14:52:56.409Z,5.93
2018-02-07T14:55:24.738Z,5.70
2018-02-07T14:57:53.019Z,6.67
2018-02-07T15:00:21.294Z,6.47
2018-02-07T15:02:49.574Z,5.97
2018-02-07T15:05:17.853Z,5.93
2018-02-07T15:07:46.138Z,5.90
2018-02-07T15:10:14.439Z,6.57
2018-02-07T15:12:42.727Z,6.70
2018-02-07T15:15:11.127Z,5.93
2018-02-07T15:17:39.723Z,6.83
2018-02-07T15:20:08.217Z,6.77
2018-02-07T15:22:36.501Z,6.10
2018-02-07T15:25:05.667Z,6.70
2018-02-07T15:27:36.699Z,6.47
2018-02-07T15:30:04.741Z,6.67
2018-02-07T15:32:33.025Z,6.93
2018-02-07T15:35:01.308Z,6.23
2018-02-07T15:37:29.618Z,6.83
2018-02-07T15:39:57.888Z,7.27
2018-02-07T15:42:25.994Z,6.77
2018-02-07T15:44:54.284Z,7.20
2018-02-07T15:47:22.567Z,7.03
2018-02-07T15:49:50.859Z,6.93
2018-02-07T15:52:19.126Z,6.43
2018-02-07T15:54:47.433Z,6.93
2018-02-07T15:57:15.758Z,6.73
2018-02-07T15:59:44.092Z,6.77
2018-02-07T16:02:12.381Z,6.67
2018-02-07T16:04:40.690Z,7.60
2018-02-07T16:07:09.024Z,7.40
2018-02-07T16:09:38.060Z,8.27
2018-02-07T16:12:06.349Z,8.20
2018-02-07T16:14:34.610Z,7.83
2018-02-07T16:17:02.896Z,8.40
2018-02-07T16:22:08.350Z,8.80
2018-02-07T16:24:36.640Z,8.90
2018-02-07T16:27:05.082Z,8.90
2018-02-07T16:29:34.150Z,7.63
2018-02-07T16:32:03.957Z,7.23
2018-02-07T16:34:32.251Z,6.60
2018-02-07T16:37:00.552Z,7.33
2018-02-07T16:39:28.831Z,7.70
2018-02-07T16:41:57.097Z,7.30
2018-02-07T16:44:25.426Z,7.57
2018-02-07T16:46:53.856Z,7.17
2018-02-07T16:49:22.127Z,7.97
2018-02-07T16:51:50.400Z,8.07
2018-02-07T16:54:18.703Z,7.37
2018-02-07T16:56:46.989Z,7.57
2018-02-07T16:59:15.476Z,8.37
2018-02-07T17:01:43.855Z,7.87
2018-02-07T17:04:12.137Z,8.07
2018-02-07T17:06:40.431Z,8.00
2018-02-07T17:09:08.737Z,8.20
2018-02-07T17:11:37.034Z,7.47
2018-02-07T17:14:05.309Z,7.70
2018-02-07T17:16:33.564Z,7.67
2018-02-07T17:19:01.867Z,7.27
2018-02-07T17:21:29.824Z,7.73
2018-02-07T17:23:58.120Z,7.77
2018-02-07T17:26:26.388Z,7.40
2018-02-07T17:28:54.684Z,6.77
2018-02-07T17:31:22.772Z,8.27
2018-02-07T17:33:50.617Z,8.20
2018-02-07T17:36:18.915Z,8.03
2018-02-07T17:38:47.175Z,8.20
2018-02-07T17:41:15.470Z,8.37
2018-02-07T17:43:43.742Z,8.63
2018-02-07T17:46:12.038Z,9.53
2018-02-07T17:48:40.340Z,10.33
2018-02-07T17:51:08.640Z,8.87
2018-02-07T17:53:36.930Z,9.33
2018-02-07T17:56:05.233Z,9.37
2018-02-07T17:58:33.528Z,9.67
2018-02-07T18:01:01.804Z,9.17
2018-02-07T18:03:30.094Z,9.63
2018-02-07T18:05:58.554Z,9.47
2018-02-07T18:08:26.843Z,9.37
2018-02-07T18:10:55.871Z,10.03
2018-02-07T18:13:24.137Z,9.40
2018-02-07T18:15:52.433Z,10.43
2018-02-07T18:18:20.704Z,10.03
2018-02-07T18:20:48.995Z,10.73
2018-02-07T18:23:17.323Z,11.43
2018-02-07T18:25:45.618Z,10.70
2018-02-07T18:28:13.971Z,10.70
2018-02-07T18:30:42.383Z,12.60
2018-02-07T18:33:10.686Z,11.73
2018-02-07T18:35:39.004Z,11.90
2018-02-07T18:38:07.281Z,12.53
2018-02-07T18:40:35.647Z,12.63
2018-02-07T18:43:04.697Z,12.33
2018-02-07T18:45:33.876Z,12.40
2018-02-07T18:48:02.174Z,12.20
2018-02-07T18:50:30.449Z,12.97
2018-02-07T18:52:58.781Z,13.60
2018-02-07T18:55:27.090Z,12.93
2018-02-07T18:57:55.414Z,16.20
2018-02-07T19:00:23.805Z,19.33
2018-02-07T19:02:52.103Z,14.43
2018-02-07T19:05:21.179Z,16.50
2018-02-07T19:07:49.481Z,14.77
2018-02-07T19:10:17.782Z,13.23
2018-02-07T19:12:46.813Z,14.80
2018-02-07T19:15:15.129Z,14.13
2018-02-07T19:17:43.421Z,13.80
2018-02-07T19:20:11.730Z,14.10
2018-02-07T19:22:40.038Z,14.20
2018-02-07T19:25:08.334Z,17.73
2018-02-07T19:27:36.616Z,19.87
2018-02-07T19:30:05.250Z,16.77
2018-02-07T19:32:34.364Z,15.57
2018-02-07T19:35:02.819Z,15.43
2018-02-07T19:37:31.115Z,14.40
2018-02-07T19:39:59.617Z,15.20
2018-02-07T19:42:27.978Z,14.40
2018-02-07T19:44:56.264Z,14.83
2018-02-07T19:47:25.381Z,14.30
2018-02-07T19:49:53.928Z,16.83
2018-02-07T19:52:22.218Z,15.33
2018-02-07T19:54:50.502Z,14.40
2018-02-07T19:57:18.812Z,14.47
2018-02-07T19:59:47.886Z,14.70
2018-02-07T20:02:16.207Z,13.80
2018-02-07T20:04:44.479Z,13.60
2018-02-07T20:07:12.750Z,14.03
2018-02-07T20:09:41.044Z,16.10
2018-02-07T20:12:09.322Z,15.90
2018-02-07T20:14:37.602Z,17.83
2018-02-07T20:17:05.710Z,16.80
2018-02-07T20:19:33.984Z,14.90
2018-02-07T20:22:02.261Z,15.53
2018-02-07T20:24:30.543Z,13.63
2018-02-07T20:26:58.820Z,15.30
2018-02-07T20:29:27.290Z,14.70
2018-02-07T20:31:55.600Z,15.43
2018-02-07T20:34:23.886Z,15.30
2018-02-07T20:36:52.156Z,14.90
2018-02-07T20:39:20.724Z,14.30
2018-02-07T20:41:49.348Z,15.50
2018-02-07T20:44:17.711Z,15.07
2018-02-07T20:46:46.022Z,15.30
2018-02-07T20:49:14.368Z,15.73
2018-02-07T20:56:48.965Z,14.60
2018-02-07T20:59:17.262Z,15.13
2018-02-07T21:01:47.953Z,13.60
2018-02-07T21:04:16.222Z,15.73
2018-02-07T21:06:44.513Z,16.23
2018-02-07T21:09:12.779Z,14.20
2018-02-07T21:11:41.872Z,14.97
2018-02-07T21:14:10.181Z,14.57
2018-02-07T21:16:38.459Z,14.77
2018-02-07T21:19:06.736Z,15.20
2018-02-07T21:21:35.018Z,14.70
2018-02-07T21:24:03.316Z,14.10
2018-02-07T21:26:31.589Z,15.37
2018-02-07T21:29:00.817Z,14.70
2018-02-07T21:31:29.118Z,15.30
2018-02-07T21:33:57.610Z,15.23
2018-02-07T21:36:25.889Z,16.27
2018-02-07T21:38:54.296Z,15.37
2018-02-07T21:41:23.142Z,15.67
2018-02-07T21:43:51.231Z,15.87
2018-02-07T21:46:19.338Z,15.10
2018-02-07T21:48:47.638Z,15.47
2018-02-07T21:51:15.915Z,15.00
2018-02-07T21:53:44.179Z,15.00
2018-02-07T21:56:12.463Z,16.50
2018-02-07T21:58:40.740Z,15.80
2018-02-07T22:01:09.031Z,15.33
2018-02-07T22:03:37.303Z,15.57
2018-02-07T22:06:05.613Z,15.47
2018-02-07T22:08:33.889Z,16.23
2018-02-07T22:11:02.165Z,16.03
2018-02-07T22:13:30.427Z,16.07
2018-02-07T22:15:58.534Z,16.33
2018-02-07T22:18:26.808Z,15.50
2018-02-07T22:20:55.090Z,15.33
2018-02-07T22:23:23.367Z,15.53
2018-02-07T22:25:52.411Z,16.20
2018-02-07T22:28:20.699Z,15.43
2018-02-07T22:30:48.971Z,16.93
2018-02-07T22:33:17.258Z,16.37
2018-02-07T22:35:45.543Z,16.13
2018-02-07T22:38:13.818Z,18.23
2018-02-07T22:40:42.102Z,16.23
2018-02-07T22:43:10.369Z,17.03
2018-02-07T22:45:38.665Z,17.20
2018-02-07T22:48:06.933Z,17.17
2018-02-07T22:50:35.202Z,16.93
2018-02-07T22:53:03.476Z,17.00
2018-02-07T22:55:31.755Z,16.30
2018-02-07T22:58:00.058Z,16.93
2018-02-07T23:00:28.324Z,16.20
2018-02-07T23:02:56.605Z,16.73
2018-02-07T23:05:24.874Z,15.13
2018-02-07T23:07:53.163Z,16.47
2018-02-07T23:10:21.501Z,16.67
2018-02-07T23:12:50.080Z,15.50
2018-02-07T23:15:18.355Z,16.23
2018-02-07T23:17:46.643Z,17.33
2018-02-07T23:20:14.902Z,16.23
2018-02-07T23:22:43.161Z,17.33
2018-02-07T23:25:11.438Z,17.80
2018-02-07T23:27:39.708Z,17.23
2018-02-07T23:30:07.989Z,16.17
2018-02-07T23:32:36.271Z,16.17
2018-02-07T23:35:04.550Z,16.27
2018-02-07T23:37:32.843Z,17.67
2018-02-07T23:40:01.113Z,16.97
2018-02-07T23:42:29.610Z,16.83
2018-02-07T23:44:57.868Z,17.13
2018-02-07T23:47:26.149Z,17.67
2018-02-07T23:49:54.405Z,16.27
2018-02-07T23:52:22.710Z,16.77
2018-02-07T23:54:51.398Z,17.53
2018-02-07T23:57:19.703Z,17.33
2018-02-07T23:59:48.896Z,18.13
